sensor_id;sensor_type;location;lat;lon;timestamp;pressure;altitude;pressure_sealevel;temperature;humidity
6829;BME280;17930;48.592;8.868;2022-11-20T00:01:23;96262.56;;;2.71;100.00
6829;BME280;17930;48.592;8.868;2022-11-20T00:03:51;96272.78;;;2.82;100.00
6829;BME280;17930;48.592;8.868;2022-11-20T00:06:19;96270.53;;;2.86;100.00
6829;BME280;17930;48.592;8.868;2022-11-20T00:08:46;96260.91;;;2.98;100.00
6829;BME280;17930;48.592;8.868;2022-11-20T00:11:16;96263.09;;;2.89;100.00
6829;BME280;17930;48.592;8.868;2022-11-20T00:13:43;96266.72;;;2.72;100.00
6829;BME280;17930;48.592;8.868;2022-11-20T00:16:11;96274.81;;;2.64;100.00
6829;BME280;17930;48.592;8.868;2022-11-20T00:18:38;96277.22;;;2.54;100.00
6829;BME280;17930;48.592;8.868;2022-11-20T00:21:07;96280.44;;;2.45;100.00
6829;BME280;17930;48.592;8.868;2022-11-20T00:23:34;96280.97;;;2.30;100.00
6829;BME280;17930;48.592;8.868;2022-11-20T00:26:02;96284.91;;;2.21;100.00
6829;BME280;17930;48.592;8.868;2022-11-20T00:28:31;96282.63;;;2.08;100.00
6829;BME280;17930;48.592;8.868;2022-11-20T00:31:02;96286.66;;;2.04;100.00
6829;BME280;17930;48.592;8.868;2022-11-20T00:33:29;96287.34;;;2.00;100.00
6829;BME280;17930;48.592;8.868;2022-11-20T00:35:59;96288.09;;;2.01;100.00
6829;BME280;17930;48.592;8.868;2022-11-20T00:38:27;96287.50;;;1.94;100.00
6829;BME280;17930;48.592;8.868;2022-11-20T00:40:55;96282.44;;;1.99;100.00
6829;BME280;17930;48.592;8.868;2022-11-20T00:43:22;96277.66;;;1.91;100.00
6829;BME280;17930;48.592;8.868;2022-11-20T00:45:50;96284.41;;;2.08;100.00
6829;BME280;17930;48.592;8.868;2022-11-20T00:48:17;96281.44;;;2.16;100.00
6829;BME280;17930;48.592;8.868;2022-11-20T00:50:44;96291.25;;;2.03;100.00
6829;BME280;17930;48.592;8.868;2022-11-20T00:53:10;96292.81;;;2.03;100.00
6829;BME280;17930;48.592;8.868;2022-11-20T00:55:37;96289.00;;;2.50;100.00
6829;BME280;17930;48.592;8.868;2022-11-20T00:58:04;96296.81;;;2.27;100.00
6829;BME280;17930;48.592;8.868;2022-11-20T01:00:30;96293.00;;;2.13;100.00
6829;BME280;17930;48.592;8.868;2022-11-20T01:02:58;96289.13;;;2.00;100.00
6829;BME280;17930;48.592;8.868;2022-11-20T01:05:25;96289.69;;;2.02;100.00
6829;BME280;17930;48.592;8.868;2022-11-20T01:07:52;96286.56;;;2.00;100.00
6829;BME280;17930;48.592;8.868;2022-11-20T01:10:18;96291.19;;;1.86;100.00
6829;BME280;17930;48.592;8.868;2022-11-20T01:12:45;96284.78;;;1.61;100.00
6829;BME280;17930;48.592;8.868;2022-11-20T01:15:33;96297.22;;;1.41;100.00
6829;BME280;17930;48.592;8.868;2022-11-20T01:18:03;96295.47;;;1.30;100.00
6829;BME280;17930;48.592;8.868;2022-11-20T01:20:34;96293.13;;;1.29;100.00
6829;BME280;17930;48.592;8.868;2022-11-20T01:23:00;96294.78;;;1.23;100.00
6829;BME280;17930;48.592;8.868;2022-11-20T01:25:27;96291.19;;;1.24;100.00
6829;BME280;17930;48.592;8.868;2022-11-20T01:27:54;96296.56;;;1.23;100.00
6829;BME280;17930;48.592;8.868;2022-11-20T01:30:21;96299.13;;;1.23;100.00
6829;BME280;17930;48.592;8.868;2022-11-20T01:32:47;96299.25;;;1.16;100.00
6829;BME280;17930;48.592;8.868;2022-11-20T01:35:15;96302.16;;;1.20;100.00
6829;BME280;17930;48.592;8.868;2022-11-20T01:37:42;96301.59;;;1.18;100.00
6829;BME280;17930;48.592;8.868;2022-11-20T01:40:10;96305.31;;;1.10;100.00
6829;BME280;17930;48.592;8.868;2022-11-20T01:42:37;96309.09;;;1.08;100.00
6829;BME280;17930;48.592;8.868;2022-11-20T01:48:33;96305.84;;;1.24;100.00
6829;BME280;17930;48.592;8.868;2022-11-20T01:51:06;96302.59;;;1.17;100.00
6829;BME280;17930;48.592;8.868;2022-11-20T01:53:36;96301.72;;;1.34;100.00
6829;BME280;17930;48.592;8.868;2022-11-20T01:56:05;96305.38;;;1.38;100.00
6829;BME280;17930;48.592;8.868;2022-11-20T01:58:38;96304.38;;;1.39;100.00
6829;BME280;17930;48.592;8.868;2022-11-20T02:01:09;96302.75;;;1.61;100.00
6829;BME280;17930;48.592;8.868;2022-11-20T02:03:36;96300.91;;;1.45;100.00
6829;BME280;17930;48.592;8.868;2022-11-20T02:06:10;96302.56;;;1.40;100.00
6829;BME280;17930;48.592;8.868;2022-11-20T02:08:39;96297.13;;;1.36;100.00
6829;BME280;17930;48.592;8.868;2022-11-20T02:11:06;96291.53;;;1.39;100.00
6829;BME280;17930;48.592;8.868;2022-11-20T02:13:33;96291.84;;;1.54;100.00
6829;BME280;17930;48.592;8.868;2022-11-20T02:16:14;96288.00;;;1.68;100.00
6829;BME280;17930;48.592;8.868;2022-11-20T02:18:42;96284.50;;;1.85;100.00
6829;BME280;17930;48.592;8.868;2022-11-20T02:21:31;96284.81;;;1.89;100.00
6829;BME280;17930;48.592;8.868;2022-11-20T02:24:04;96286.88;;;2.03;100.00
6829;BME280;17930;48.592;8.868;2022-11-20T02:26:34;96285.53;;;2.01;100.00
6829;BME280;17930;48.592;8.868;2022-11-20T02:29:04;96293.53;;;1.88;100.00
6829;BME280;17930;48.592;8.868;2022-11-20T02:31:40;96293.78;;;1.75;100.00
6829;BME280;17930;48.592;8.868;2022-11-20T02:34:08;96299.66;;;1.59;100.00
6829;BME280;17930;48.592;8.868;2022-11-20T02:36:35;96296.63;;;1.62;100.00
6829;BME280;17930;48.592;8.868;2022-11-20T02:39:05;96296.97;;;1.65;100.00
6829;BME280;17930;48.592;8.868;2022-11-20T02:41:34;96299.47;;;1.88;100.00
6829;BME280;17930;48.592;8.868;2022-11-20T02:44:01;96298.00;;;1.81;100.00
6829;BME280;17930;48.592;8.868;2022-11-20T02:46:29;96298.47;;;1.78;100.00
6829;BME280;17930;48.592;8.868;2022-11-20T02:48:56;96296.13;;;1.76;100.00
6829;BME280;17930;48.592;8.868;2022-11-20T02:51:23;96293.88;;;1.91;100.00
6829;BME280;17930;48.592;8.868;2022-11-20T02:53:50;96294.19;;;1.95;100.00
6829;BME280;17930;48.592;8.868;2022-11-20T02:56:18;96295.75;;;1.96;100.00
6829;BME280;17930;48.592;8.868;2022-11-20T02:58:45;96295.81;;;2.28;100.00
6829;BME280;17930;48.592;8.868;2022-11-20T03:01:12;96282.44;;;2.43;100.00
6829;BME280;17930;48.592;8.868;2022-11-20T03:03:39;96285.25;;;2.41;100.00
6829;BME280;17930;48.592;8.868;2022-11-20T03:06:06;96286.66;;;2.49;100.00
6829;BME280;17930;48.592;8.868;2022-11-20T03:08:33;96289.28;;;2.37;100.00
6829;BME280;17930;48.592;8.868;2022-11-20T03:11:03;96288.63;;;2.58;100.00
6829;BME280;17930;48.592;8.868;2022-11-20T03:13:33;96287.59;;;2.59;100.00
6829;BME280;17930;48.592;8.868;2022-11-20T03:16:06;96289.34;;;2.70;100.00
6829;BME280;17930;48.592;8.868;2022-11-20T03:18:33;96287.78;;;2.69;100.00
6829;BME280;17930;48.592;8.868;2022-11-20T03:20:59;96293.44;;;2.71;100.00
6829;BME280;17930;48.592;8.868;2022-11-20T03:23:28;96285.88;;;2.81;100.00
6829;BME280;17930;48.592;8.868;2022-11-20T03:25:55;96287.94;;;2.79;100.00
6829;BME280;17930;48.592;8.868;2022-11-20T03:28:22;96280.88;;;2.91;100.00
6829;BME280;17930;48.592;8.868;2022-11-20T03:30:50;96274.97;;;2.90;100.00
6829;BME280;17930;48.592;8.868;2022-11-20T03:33:17;96278.56;;;2.73;100.00
6829;BME280;17930;48.592;8.868;2022-11-20T03:35:43;96286.78;;;2.70;100.00
6829;BME280;17930;48.592;8.868;2022-11-20T03:38:10;96288.88;;;2.73;100.00
6829;BME280;17930;48.592;8.868;2022-11-20T03:40:37;96288.63;;;2.74;100.00
6829;BME280;17930;48.592;8.868;2022-11-20T03:43:03;96285.56;;;2.94;100.00
6829;BME280;17930;48.592;8.868;2022-11-20T03:45:30;96282.13;;;3.04;100.00
6829;BME280;17930;48.592;8.868;2022-11-20T03:47:58;96280.44;;;3.31;100.00
6829;BME280;17930;48.592;8.868;2022-11-20T03:50:25;96275.69;;;3.23;100.00
6829;BME280;17930;48.592;8.868;2022-11-20T03:52:51;96278.47;;;3.38;100.00
6829;BME280;17930;48.592;8.868;2022-11-20T03:55:18;96281.09;;;3.43;100.00
6829;BME280;17930;48.592;8.868;2022-11-20T03:57:59;96274.66;;;3.62;100.00
6829;BME280;17930;48.592;8.868;2022-11-20T04:00:25;96281.03;;;3.76;100.00
6829;BME280;17930;48.592;8.868;2022-11-20T04:02:52;96277.41;;;3.77;100.00
6829;BME280;17930;48.592;8.868;2022-11-20T04:05:20;96283.28;;;3.72;100.00
6829;BME280;17930;48.592;8.868;2022-11-20T04:07:47;96288.19;;;3.74;100.00
6829;BME280;17930;48.592;8.868;2022-11-20T04:10:14;96284.28;;;3.71;100.00
6829;BME280;17930;48.592;8.868;2022-11-20T04:12:40;96289.66;;;3.65;100.00
6829;BME280;17930;48.592;8.868;2022-11-20T04:15:08;96281.19;;;3.69;100.00
6829;BME280;17930;48.592;8.868;2022-11-20T04:17:35;96281.03;;;3.76;100.00
6829;BME280;17930;48.592;8.868;2022-11-20T04:20:02;96276.53;;;3.66;100.00
6829;BME280;17930;48.592;8.868;2022-11-20T04:22:31;96268.44;;;3.58;100.00
6829;BME280;17930;48.592;8.868;2022-11-20T04:24:57;96277.78;;;3.64;100.00
6829;BME280;17930;48.592;8.868;2022-11-20T04:27:24;96268.38;;;3.74;100.00
6829;BME280;17930;48.592;8.868;2022-11-20T04:29:51;96272.69;;;3.69;100.00
6829;BME280;17930;48.592;8.868;2022-11-20T04:32:17;96266.72;;;3.68;100.00
6829;BME280;17930;48.592;8.868;2022-11-20T04:34:44;96270.88;;;3.69;100.00
6829;BME280;17930;48.592;8.868;2022-11-20T04:37:11;96270.59;;;3.66;100.00
6829;BME280;17930;48.592;8.868;2022-11-20T04:39:39;96273.69;;;3.68;100.00
6829;BME280;17930;48.592;8.868;2022-11-20T04:42:07;96268.53;;;3.68;100.00
6829;BME280;17930;48.592;8.868;2022-11-20T04:44:51;96266.94;;;3.62;100.00
6829;BME280;17930;48.592;8.868;2022-11-20T04:47:18;96268.25;;;3.64;100.00
6829;BME280;17930;48.592;8.868;2022-11-20T04:49:45;96268.53;;;3.68;100.00
6829;BME280;17930;48.592;8.868;2022-11-20T04:52:12;96267.91;;;3.56;100.00
6829;BME280;17930;48.592;8.868;2022-11-20T04:54:40;96263.28;;;3.58;100.00
6829;BME280;17930;48.592;8.868;2022-11-20T04:57:07;96269.50;;;3.62;100.00
6829;BME280;17930;48.592;8.868;2022-11-20T04:59:33;96265.25;;;3.72;100.00
6829;BME280;17930;48.592;8.868;2022-11-20T05:02:00;96272.31;;;3.82;100.00
6829;BME280;17930;48.592;8.868;2022-11-20T05:04:27;96275.50;;;3.89;100.00
6829;BME280;17930;48.592;8.868;2022-11-20T05:06:53;96264.88;;;3.85;100.00
6829;BME280;17930;48.592;8.868;2022-11-20T05:09:20;96264.13;;;3.90;100.00
6829;BME280;17930;48.592;8.868;2022-11-20T05:11:48;96259.47;;;3.87;100.00
6829;BME280;17930;48.592;8.868;2022-11-20T05:14:14;96255.97;;;3.98;100.00
6829;BME280;17930;48.592;8.868;2022-11-20T05:16:41;96252.78;;;3.86;100.00
6829;BME280;17930;48.592;8.868;2022-11-20T05:19:08;96248.88;;;3.83;100.00
6829;BME280;17930;48.592;8.868;2022-11-20T05:21:35;96250.09;;;3.76;100.00
6829;BME280;17930;48.592;8.868;2022-11-20T05:24:02;96256.28;;;3.80;100.00
6829;BME280;17930;48.592;8.868;2022-11-20T05:26:29;96260.84;;;3.73;100.00
6829;BME280;17930;48.592;8.868;2022-11-20T05:28:57;96256.59;;;3.83;100.00
6829;BME280;17930;48.592;8.868;2022-11-20T05:31:24;96257.09;;;3.80;100.00
6829;BME280;17930;48.592;8.868;2022-11-20T05:33:51;96266.00;;;3.73;100.00
6829;BME280;17930;48.592;8.868;2022-11-20T05:36:18;96257.97;;;3.91;100.00
6829;BME280;17930;48.592;8.868;2022-11-20T05:38:45;96258.28;;;3.94;100.00
6829;BME280;17930;48.592;8.868;2022-11-20T05:41:13;96261.13;;;3.98;100.00
6829;BME280;17930;48.592;8.868;2022-11-20T05:43:42;96261.75;;;3.83;100.00
6829;BME280;17930;48.592;8.868;2022-11-20T05:46:12;96265.91;;;3.84;100.00
6829;BME280;17930;48.592;8.868;2022-11-20T05:48:41;96268.34;;;3.96;100.00
6829;BME280;17930;48.592;8.868;2022-11-20T05:51:10;96257.47;;;3.94;100.00
6829;BME280;17930;48.592;8.868;2022-11-20T05:53:37;96255.34;;;3.86;100.00
6829;BME280;17930;48.592;8.868;2022-11-20T05:56:06;96258.94;;;3.85;100.00
6829;BME280;17930;48.592;8.868;2022-11-20T05:58:33;96262.53;;;3.84;100.00
6829;BME280;17930;48.592;8.868;2022-11-20T06:01:05;96255.94;;;3.93;100.00
6829;BME280;17930;48.592;8.868;2022-11-20T06:03:34;96257.44;;;3.89;100.00
6829;BME280;17930;48.592;8.868;2022-11-20T06:06:01;96259.84;;;3.74;100.00
6829;BME280;17930;48.592;8.868;2022-11-20T06:08:28;96259.31;;;3.72;100.00
6829;BME280;17930;48.592;8.868;2022-11-20T06:10:55;96253.91;;;3.73;100.00
6829;BME280;17930;48.592;8.868;2022-11-20T06:13:21;96251.59;;;3.72;100.00
6829;BME280;17930;48.592;8.868;2022-11-20T06:15:49;96251.03;;;3.70;100.00
6829;BME280;17930;48.592;8.868;2022-11-20T06:18:16;96257.25;;;3.74;100.00
6829;BME280;17930;48.592;8.868;2022-11-20T06:20:44;96259.13;;;3.78;100.00
6829;BME280;17930;48.592;8.868;2022-11-20T06:23:11;96250.53;;;3.94;100.00
6829;BME280;17930;48.592;8.868;2022-11-20T06:25:38;96259.56;;;3.97;100.00
6829;BME280;17930;48.592;8.868;2022-11-20T06:28:05;96257.00;;;3.97;100.00
6829;BME280;17930;48.592;8.868;2022-11-20T06:30:32;96258.50;;;4.14;100.00
6829;BME280;17930;48.592;8.868;2022-11-20T06:32:58;96255.44;;;4.22;100.00
6829;BME280;17930;48.592;8.868;2022-11-20T06:35:25;96251.31;;;4.21;100.00
6829;BME280;17930;48.592;8.868;2022-11-20T06:37:53;96259.84;;;4.21;100.00
6829;BME280;17930;48.592;8.868;2022-11-20T06:40:19;96260.22;;;4.08;100.00
6829;BME280;17930;48.592;8.868;2022-11-20T06:42:46;96245.97;;;4.27;100.00
6829;BME280;17930;48.592;8.868;2022-11-20T06:45:13;96252.03;;;4.16;100.00
6829;BME280;17930;48.592;8.868;2022-11-20T06:47:40;96243.63;;;4.26;100.00
6829;BME280;17930;48.592;8.868;2022-11-20T06:50:07;96245.94;;;4.22;100.00
6829;BME280;17930;48.592;8.868;2022-11-20T06:52:34;96249.22;;;4.18;100.00
6829;BME280;17930;48.592;8.868;2022-11-20T06:55:02;96252.03;;;4.16;100.00
6829;BME280;17930;48.592;8.868;2022-11-20T06:57:29;96251.56;;;4.19;100.00
6829;BME280;17930;48.592;8.868;2022-11-20T06:59:55;96250.78;;;4.19;100.00
6829;BME280;17930;48.592;8.868;2022-11-20T07:02:22;96257.19;;;4.16;100.00
6829;BME280;17930;48.592;8.868;2022-11-20T07:04:49;96263.53;;;4.30;100.00
6829;BME280;17930;48.592;8.868;2022-11-20T07:07:16;96259.47;;;4.39;100.00
6829;BME280;17930;48.592;8.868;2022-11-20T07:09:42;96271.03;;;4.32;100.00
6829;BME280;17930;48.592;8.868;2022-11-20T07:12:10;96266.66;;;4.32;100.00
6829;BME280;17930;48.592;8.868;2022-11-20T07:14:37;96271.94;;;4.47;100.00
6829;BME280;17930;48.592;8.868;2022-11-20T07:17:03;96273.19;;;4.40;100.00
6829;BME280;17930;48.592;8.868;2022-11-20T07:19:30;96275.38;;;4.57;100.00
6829;BME280;17930;48.592;8.868;2022-11-20T07:21:57;96269.53;;;4.67;100.00
6829;BME280;17930;48.592;8.868;2022-11-20T07:24:23;96263.25;;;4.89;100.00
6829;BME280;17930;48.592;8.868;2022-11-20T07:26:50;96262.75;;;4.92;100.00
6829;BME280;17930;48.592;8.868;2022-11-20T07:29:18;96265.69;;;5.06;100.00
6829;BME280;17930;48.592;8.868;2022-11-20T07:31:45;96267.50;;;5.05;100.00
6829;BME280;17930;48.592;8.868;2022-11-20T07:34:12;96264.59;;;4.97;100.00
6829;BME280;17930;48.592;8.868;2022-11-20T07:36:39;96262.81;;;5.02;100.00
6829;BME280;17930;48.592;8.868;2022-11-20T07:39:06;96266.97;;;5.03;100.00
6829;BME280;17930;48.592;8.868;2022-11-20T07:41:32;96272.41;;;5.02;100.00
6829;BME280;17930;48.592;8.868;2022-11-20T07:43:59;96273.50;;;5.15;100.00
6829;BME280;17930;48.592;8.868;2022-11-20T07:46:27;96265.22;;;5.13;100.00
6829;BME280;17930;48.592;8.868;2022-11-20T07:48:54;96267.91;;;5.28;100.00
6829;BME280;17930;48.592;8.868;2022-11-20T07:51:20;96270.31;;;5.40;100.00
6829;BME280;17930;48.592;8.868;2022-11-20T07:53:47;96263.56;;;5.39;100.00
6829;BME280;17930;48.592;8.868;2022-11-20T07:56:16;96262.31;;;5.46;100.00
6829;BME280;17930;48.592;8.868;2022-11-20T07:58:43;96271.13;;;5.50;100.00
6829;BME280;17930;48.592;8.868;2022-11-20T08:01:10;96277.06;;;5.51;100.00
6829;BME280;17930;48.592;8.868;2022-11-20T08:03:38;96279.66;;;5.51;100.00
6829;BME280;17930;48.592;8.868;2022-11-20T08:06:05;96279.13;;;5.49;100.00
6829;BME280;17930;48.592;8.868;2022-11-20T08:08:32;96285.63;;;5.51;100.00
6829;BME280;17930;48.592;8.868;2022-11-20T08:10:59;96286.13;;;5.48;100.00
6829;BME280;17930;48.592;8.868;2022-11-20T08:13:40;96283.78;;;5.52;100.00
6829;BME280;17930;48.592;8.868;2022-11-20T08:16:24;96292.13;;;5.63;100.00
6829;BME280;17930;48.592;8.868;2022-11-20T08:18:52;96297.59;;;5.67;100.00
6829;BME280;17930;48.592;8.868;2022-11-20T08:21:18;96305.41;;;5.77;100.00
6829;BME280;17930;48.592;8.868;2022-11-20T08:23:45;96303.84;;;5.76;100.00
6829;BME280;17930;48.592;8.868;2022-11-20T08:26:12;96304.66;;;5.81;100.00
6829;BME280;17930;48.592;8.868;2022-11-20T08:28:39;96302.94;;;6.07;100.00
6829;BME280;17930;48.592;8.868;2022-11-20T08:31:05;96302.91;;;6.02;100.00
6829;BME280;17930;48.592;8.868;2022-11-20T08:33:32;96305.25;;;5.98;100.00
6829;BME280;17930;48.592;8.868;2022-11-20T08:36:01;96304.22;;;6.04;100.00
6829;BME280;17930;48.592;8.868;2022-11-20T08:38:28;96314.56;;;6.04;100.00
6829;BME280;17930;48.592;8.868;2022-11-20T08:40:57;96308.13;;;6.11;100.00
6829;BME280;17930;48.592;8.868;2022-11-20T08:43:41;96326.28;;;6.21;100.00
6829;BME280;17930;48.592;8.868;2022-11-20T08:46:08;96315.91;;;6.21;100.00
6829;BME280;17930;48.592;8.868;2022-11-20T08:48:35;96318.03;;;6.24;100.00
6829;BME280;17930;48.592;8.868;2022-11-20T08:51:03;96321.59;;;6.13;100.00
6829;BME280;17930;48.592;8.868;2022-11-20T08:53:30;96321.09;;;6.21;100.00
6829;BME280;17930;48.592;8.868;2022-11-20T08:55:57;96327.06;;;6.27;100.00
6829;BME280;17930;48.592;8.868;2022-11-20T08:58:24;96326.31;;;6.31;100.00
6829;BME280;17930;48.592;8.868;2022-11-20T09:00:50;96327.88;;;6.32;100.00
6829;BME280;17930;48.592;8.868;2022-11-20T09:03:17;96326.31;;;6.31;100.00
6829;BME280;17930;48.592;8.868;2022-11-20T09:05:44;96329.91;;;6.25;100.00
6829;BME280;17930;48.592;8.868;2022-11-20T09:08:12;96324.50;;;6.37;100.00
6829;BME280;17930;48.592;8.868;2022-11-20T09:10:39;96326.38;;;6.41;100.00
6829;BME280;17930;48.592;8.868;2022-11-20T09:13:06;96329.47;;;6.48;100.00
6829;BME280;17930;48.592;8.868;2022-11-20T09:15:33;96331.03;;;6.49;100.00
6829;BME280;17930;48.592;8.868;2022-11-20T09:18:01;96346.06;;;6.47;100.00
6829;BME280;17930;48.592;8.868;2022-11-20T09:20:30;96338.00;;;6.44;100.00
6829;BME280;17930;48.592;8.868;2022-11-20T09:22:56;96344.50;;;6.41;100.00
6829;BME280;17930;48.592;8.868;2022-11-20T09:25:25;96342.63;;;6.32;100.00
6829;BME280;17930;48.592;8.868;2022-11-20T09:27:55;96348.59;;;6.32;100.00
6829;BME280;17930;48.592;8.868;2022-11-20T09:30:21;96346.75;;;6.28;100.00
6829;BME280;17930;48.592;8.868;2022-11-20T09:32:48;96350.91;;;6.34;100.00
6829;BME280;17930;48.592;8.868;2022-11-20T09:35:15;96352.25;;;6.41;100.00
6829;BME280;17930;48.592;8.868;2022-11-20T09:37:43;96352.78;;;6.48;100.00
6829;BME280;17930;48.592;8.868;2022-11-20T09:40:17;96354.84;;;6.46;100.00
6829;BME280;17930;48.592;8.868;2022-11-20T09:42:49;96355.66;;;6.52;100.00
6829;BME280;17930;48.592;8.868;2022-11-20T09:45:23;96355.13;;;6.60;100.00
6829;BME280;17930;48.592;8.868;2022-11-20T09:48:01;96350.19;;;6.48;100.00
6829;BME280;17930;48.592;8.868;2022-11-20T09:50:32;96359.03;;;6.62;100.00
6829;BME280;17930;48.592;8.868;2022-11-20T09:53:13;96350.75;;;6.70;100.00
6829;BME280;17930;48.592;8.868;2022-11-20T09:55:42;96350.50;;;6.76;100.00
6829;BME280;17930;48.592;8.868;2022-11-20T09:58:16;96351.00;;;6.63;100.00
6829;BME280;17930;48.592;8.868;2022-11-20T10:00:48;96349.47;;;6.63;100.00
6829;BME280;17930;48.592;8.868;2022-11-20T10:03:19;96345.56;;;6.60;100.00
6829;BME280;17930;48.592;8.868;2022-11-20T10:05:51;96348.16;;;6.65;100.00
6829;BME280;17930;48.592;8.868;2022-11-20T10:08:22;96352.59;;;6.84;100.00
6829;BME280;17930;48.592;8.868;2022-11-20T10:10:54;96350.28;;;7.03;100.00
6829;BME280;17930;48.592;8.868;2022-11-20T10:13:38;96352.84;;;7.08;100.00
6829;BME280;17930;48.592;8.868;2022-11-20T10:16:18;96357.03;;;7.23;100.00
6829;BME280;17930;48.592;8.868;2022-11-20T10:18:57;96350.28;;;7.32;100.00
6829;BME280;17930;48.592;8.868;2022-11-20T10:21:33;96351.84;;;7.23;100.00
6829;BME280;17930;48.592;8.868;2022-11-20T10:24:26;96349.50;;;7.27;100.00
6829;BME280;17930;48.592;8.868;2022-11-20T10:27:03;96342.75;;;7.16;100.00
6829;BME280;17930;48.592;8.868;2022-11-20T10:29:39;96342.50;;;7.22;100.00
6829;BME280;17930;48.592;8.868;2022-11-20T10:32:12;96338.03;;;7.53;100.00
6829;BME280;17930;48.592;8.868;2022-11-20T10:34:46;96346.09;;;7.56;100.00
6829;BME280;17930;48.592;8.868;2022-11-20T10:37:18;96339.28;;;7.75;100.00
6829;BME280;17930;48.592;8.868;2022-11-20T10:39:53;96336.41;;;7.91;100.00
6829;BME280;17930;48.592;8.868;2022-11-20T10:42:29;96333.50;;;8.03;100.00
6829;BME280;17930;48.592;8.868;2022-11-20T10:45:16;96333.94;;;8.29;100.00
6829;BME280;17930;48.592;8.868;2022-11-20T10:47:46;96331.53;;;8.86;100.00
6829;BME280;17930;48.592;8.868;2022-11-20T10:50:16;96331.66;;;9.04;100.00
6829;BME280;17930;48.592;8.868;2022-11-20T10:52:52;96334.41;;;9.18;100.00
6829;BME280;17930;48.592;8.868;2022-11-20T10:55:30;96325.91;;;9.07;100.00
6829;BME280;17930;48.592;8.868;2022-11-20T10:58:03;96332.94;;;9.07;100.00
6829;BME280;17930;48.592;8.868;2022-11-20T11:00:35;96330.72;;;8.90;100.00
6829;BME280;17930;48.592;8.868;2022-11-20T11:03:02;96329.72;;;9.19;100.00
6829;BME280;17930;48.592;8.868;2022-11-20T11:05:36;96342.56;;;9.39;100.00
6829;BME280;17930;48.592;8.868;2022-11-20T11:08:10;96336.44;;;9.25;100.00
6829;BME280;17930;48.592;8.868;2022-11-20T11:10:43;96330.44;;;8.92;100.00
6829;BME280;17930;48.592;8.868;2022-11-20T11:13:19;96320.44;;;9.09;100.00
6829;BME280;17930;48.592;8.868;2022-11-20T11:15:48;96309.88;;;9.28;100.00
6829;BME280;17930;48.592;8.868;2022-11-20T11:18:24;96302.97;;;9.42;100.00
6829;BME280;17930;48.592;8.868;2022-11-20T11:20:52;96299.75;;;9.50;100.00
6829;BME280;17930;48.592;8.868;2022-11-20T11:23:30;96299.91;;;9.35;100.00
6829;BME280;17930;48.592;8.868;2022-11-20T11:25:59;96293.78;;;9.21;100.00
6829;BME280;17930;48.592;8.868;2022-11-20T11:28:26;96294.31;;;10.58;100.00
6829;BME280;17930;48.592;8.868;2022-11-20T11:30:55;96295.75;;;11.64;100.00
6829;BME280;17930;48.592;8.868;2022-11-20T11:33:23;96302.34;;;10.43;100.00
6829;BME280;17930;48.592;8.868;2022-11-20T11:35:52;96293.97;;;9.58;100.00
6829;BME280;17930;48.592;8.868;2022-11-20T11:38:28;96297.28;;;10.52;100.00
6829;BME280;17930;48.592;8.868;2022-11-20T11:40:56;96291.22;;;11.83;100.00
6829;BME280;17930;48.592;8.868;2022-11-20T11:43:25;96276.50;;;11.60;100.00
6829;BME280;17930;48.592;8.868;2022-11-20T11:46:25;96279.47;;;13.56;100.00
6829;BME280;17930;48.592;8.868;2022-11-20T11:48:55;96273.75;;;14.48;100.00
6829;BME280;17930;48.592;8.868;2022-11-20T11:51:25;96266.34;;;14.59;100.00
6829;BME280;17930;48.592;8.868;2022-11-20T11:53:55;96261.69;;;15.06;100.00
6829;BME280;17930;48.592;8.868;2022-11-20T11:56:33;96270.50;;;15.02;100.00
6829;BME280;17930;48.592;8.868;2022-11-20T11:59:04;96277.03;;;13.68;100.00
6829;BME280;17930;48.592;8.868;2022-11-20T12:01:41;96273.34;;;13.39;100.00
6829;BME280;17930;48.592;8.868;2022-11-20T12:04:16;96281.38;;;12.77;100.00
6829;BME280;17930;48.592;8.868;2022-11-20T12:06:47;96285.22;;;10.74;100.00
6829;BME280;17930;48.592;8.868;2022-11-20T12:09:18;96295.28;;;10.25;100.00
6829;BME280;17930;48.592;8.868;2022-11-20T12:11:51;96284.75;;;9.66;100.00
6829;BME280;17930;48.592;8.868;2022-11-20T12:14:22;96291.59;;;8.72;100.00
6829;BME280;17930;48.592;8.868;2022-11-20T12:16:55;96271.94;;;9.97;100.00
6829;BME280;17930;48.592;8.868;2022-11-20T12:19:23;96272.59;;;11.13;100.00
6829;BME280;17930;48.592;8.868;2022-11-20T12:21:56;96269.91;;;10.31;100.00
6829;BME280;17930;48.592;8.868;2022-11-20T12:24:41;96268.06;;;11.18;100.00
6829;BME280;17930;48.592;8.868;2022-11-20T12:27:29;96281.53;;;9.50;100.00
6829;BME280;17930;48.592;8.868;2022-11-20T12:30:04;96264.94;;;10.34;100.00
6829;BME280;17930;48.592;8.868;2022-11-20T12:32:56;96258.09;;;11.92;100.00
6829;BME280;17930;48.592;8.868;2022-11-20T12:35:38;96248.28;;;12.59;100.00
6829;BME280;17930;48.592;8.868;2022-11-20T12:38:34;96256.84;;;12.51;100.00
6829;BME280;17930;48.592;8.868;2022-11-20T12:41:06;96250.25;;;12.89;100.00
6829;BME280;17930;48.592;8.868;2022-11-20T12:43:42;96255.97;;;12.07;100.00
6829;BME280;17930;48.592;8.868;2022-11-20T12:46:33;96258.09;;;12.89;100.00
6829;BME280;17930;48.592;8.868;2022-11-20T12:49:15;96261.03;;;12.74;100.00
6829;BME280;17930;48.592;8.868;2022-11-20T12:51:57;96252.84;;;13.71;100.00
6829;BME280;17930;48.592;8.868;2022-11-20T12:54:41;96245.84;;;13.58;100.00
6829;BME280;17930;48.592;8.868;2022-11-20T12:57:16;96259.06;;;12.93;100.00
6829;BME280;17930;48.592;8.868;2022-11-20T13:00:07;96268.25;;;12.55;100.00
6829;BME280;17930;48.592;8.868;2022-11-20T13:05:45;96265.53;;;12.60;100.00
6829;BME280;17930;48.592;8.868;2022-11-20T13:08:20;96254.75;;;13.19;100.00
6829;BME280;17930;48.592;8.868;2022-11-20T13:10:52;96249.47;;;12.88;100.00
6829;BME280;17930;48.592;8.868;2022-11-20T13:13:25;96265.19;;;12.53;100.00
6829;BME280;17930;48.592;8.868;2022-11-20T13:16:01;96264.59;;;12.43;100.00
6829;BME280;17930;48.592;8.868;2022-11-20T13:18:36;96267.38;;;10.81;100.00
6829;BME280;17930;48.592;8.868;2022-11-20T13:21:15;96271.34;;;9.77;100.00
6829;BME280;17930;48.592;8.868;2022-11-20T13:23:42;96267.75;;;9.73;100.00
6829;BME280;17930;48.592;8.868;2022-11-20T13:26:16;96261.13;;;9.62;100.00
6829;BME280;17930;48.592;8.868;2022-11-20T13:28:45;96260.81;;;9.40;100.00
6829;BME280;17930;48.592;8.868;2022-11-20T13:31:27;96253.38;;;9.06;100.00